CEB821 RPMD-RPVM
Flight info
| Callsign | CEB821 |
|---|---|
| Flight time | 0h 38m |
| Altitude | 28000 |
| Route | JOFER3R JOFER W8 BOHOL BOHOL3P |
| Aircraft | A20N/M-SDE2E3FGHIRWXY/LB1 |
Departure
| Time | 2026-05-04 07:56 |
|---|---|
| Airport | Francisco Bangoy International Airport (RPMD) |
Arrival
| Time | 2026-05-04 08:35 |
|---|---|
| Airport | Mactan Cebu International Airport (RPVM) |
| Time | Latitude | Longitude | Altitude | Speed | Heading |
|---|---|---|---|---|---|
| 2026-05-04 07:29 | 7.13029 | 125.64653 | 101 ft | 0 kts | 321° |
| 2026-05-04 07:47 | 7.13021 | 125.64660 | 100 ft | 2 kts | 317° |
| 2026-05-04 07:47 | 7.13008 | 125.64671 | 101 ft | 2 kts | 316° |
| 2026-05-04 07:49 | 7.12985 | 125.64737 | 98 ft | 0 kts | 227° |
| 2026-05-04 07:50 | 7.12982 | 125.64734 | 100 ft | 3 kts | 226° |
| 2026-05-04 07:50 | 7.12947 | 125.64695 | 101 ft | 13 kts | 229° |
| 2026-05-04 07:50 | 7.12883 | 125.64623 | 101 ft | 14 kts | 228° |
| 2026-05-04 07:51 | 7.12824 | 125.64551 | 101 ft | 12 kts | 230° |
| 2026-05-04 07:51 | 7.12766 | 125.64486 | 101 ft | 13 kts | 227° |
| 2026-05-04 07:51 | 7.12687 | 125.64460 | 100 ft | 13 kts | 155° |
| 2026-05-04 07:51 | 7.12616 | 125.64515 | 100 ft | 13 kts | 138° |
| 2026-05-04 07:52 | 7.12537 | 125.64546 | 99 ft | 13 kts | 204° |
| 2026-05-04 07:52 | 7.12463 | 125.64479 | 98 ft | 16 kts | 229° |
| 2026-05-04 07:52 | 7.12387 | 125.64391 | 99 ft | 18 kts | 230° |
| 2026-05-04 07:52 | 7.12305 | 125.64292 | 100 ft | 19 kts | 230° |
| 2026-05-04 07:53 | 7.12214 | 125.64188 | 100 ft | 21 kts | 228° |
| 2026-05-04 07:54 | 7.11698 | 125.63544 | 99 ft | 4 kts | 137° |
| 2026-05-04 07:55 | 7.11693 | 125.63572 | 99 ft | 4 kts | 80° |
| 2026-05-04 07:55 | 7.11708 | 125.63601 | 98 ft | 6 kts | 55° |
| 2026-05-04 07:55 | 7.11738 | 125.63638 | 99 ft | 9 kts | 48° |
| 2026-05-04 07:55 | 7.11913 | 125.63841 | 100 ft | 72 kts | 50° |
| 2026-05-04 07:56 | 7.12372 | 125.64372 | 99 ft | 127 kts | 49° |
| 2026-05-04 07:56 | 7.13020 | 125.65131 | 365 ft | 146 kts | 50° |
| 2026-05-04 07:56 | 7.13739 | 125.65868 | 1018 ft | 151 kts | 33° |
| 2026-05-04 07:56 | 7.14748 | 125.66199 | 1603 ft | 160 kts | 360° |
| 2026-05-04 07:57 | 7.15881 | 125.66080 | 2116 ft | 170 kts | 353° |
| 2026-05-04 07:57 | 7.17113 | 125.65928 | 2587 ft | 187 kts | 354° |
| 2026-05-04 07:57 | 7.18475 | 125.65765 | 3064 ft | 209 kts | 353° |
| 2026-05-04 07:57 | 7.19981 | 125.65584 | 3676 ft | 232 kts | 353° |
| 2026-05-04 07:58 | 7.21660 | 125.65377 | 4412 ft | 254 kts | 352° |
| 2026-05-04 07:58 | 7.23474 | 125.65150 | 5475 ft | 267 kts | 353° |
| 2026-05-04 07:58 | 7.25331 | 125.64922 | 6516 ft | 273 kts | 354° |
| 2026-05-04 07:58 | 7.27233 | 125.64689 | 7384 ft | 279 kts | 354° |
| 2026-05-04 07:59 | 7.29179 | 125.64450 | 8293 ft | 284 kts | 354° |
| 2026-05-04 07:59 | 7.31164 | 125.64207 | 9159 ft | 290 kts | 354° |
| 2026-05-04 07:59 | 7.33187 | 125.63959 | 10033 ft | 295 kts | 354° |
| 2026-05-04 07:59 | 7.35275 | 125.63704 | 10585 ft | 313 kts | 354° |
| 2026-05-04 08:00 | 7.37519 | 125.63431 | 10879 ft | 337 kts | 354° |
| 2026-05-04 08:00 | 7.39902 | 125.63140 | 11379 ft | 350 kts | 354° |
| 2026-05-04 08:00 | 7.42334 | 125.62841 | 12157 ft | 354 kts | 354° |
| 2026-05-04 08:02 | 7.57521 | 125.53465 | 16918 ft | 389 kts | 322° |
| 2026-05-04 08:02 | 7.59646 | 125.51757 | 17531 ft | 393 kts | 322° |
| 2026-05-04 08:02 | 7.61801 | 125.50026 | 18098 ft | 398 kts | 322° |
| 2026-05-04 08:03 | 7.63978 | 125.48278 | 18609 ft | 402 kts | 322° |
| 2026-05-04 08:03 | 7.66172 | 125.46515 | 19198 ft | 404 kts | 322° |
| 2026-05-04 08:03 | 7.68375 | 125.44746 | 19755 ft | 406 kts | 322° |
| 2026-05-04 08:03 | 7.70597 | 125.42963 | 20255 ft | 411 kts | 322° |
| 2026-05-04 08:04 | 7.72844 | 125.41158 | 20758 ft | 414 kts | 323° |
| 2026-05-04 08:04 | 7.75107 | 125.39340 | 21288 ft | 417 kts | 322° |
| 2026-05-04 08:04 | 7.77379 | 125.37515 | 21791 ft | 420 kts | 322° |
| 2026-05-04 08:04 | 7.79645 | 125.35694 | 22296 ft | 423 kts | 322° |
| 2026-05-04 08:05 | 7.81955 | 125.33838 | 22793 ft | 426 kts | 322° |
| 2026-05-04 08:05 | 7.84284 | 125.31966 | 23295 ft | 430 kts | 322° |
| 2026-05-04 08:05 | 7.86630 | 125.30081 | 23740 ft | 433 kts | 322° |
| 2026-05-04 08:05 | 7.88993 | 125.28181 | 24161 ft | 435 kts | 322° |
| 2026-05-04 08:06 | 7.91399 | 125.26246 | 24581 ft | 438 kts | 322° |
| 2026-05-04 08:06 | 7.93789 | 125.24324 | 24980 ft | 441 kts | 322° |
| 2026-05-04 08:06 | 7.96188 | 125.22451 | 25369 ft | 443 kts | 326° |
| 2026-05-04 08:06 | 7.98811 | 125.20822 | 25756 ft | 444 kts | 333° |
| 2026-05-04 08:08 | 8.18388 | 125.10648 | 27903 ft | 458 kts | 333° |
| 2026-05-04 08:08 | 8.21218 | 125.09173 | 27906 ft | 457 kts | 333° |
| 2026-05-04 08:10 | 8.42908 | 124.97859 | 27906 ft | 458 kts | 333° |
| 2026-05-04 08:11 | 8.45740 | 124.96379 | 27905 ft | 458 kts | 333° |
| 2026-05-04 08:11 | 8.52316 | 124.92943 | 27900 ft | 458 kts | 333° |
| 2026-05-04 08:11 | 8.55145 | 124.91464 | 27897 ft | 458 kts | 333° |
| 2026-05-04 08:12 | 8.57056 | 124.90465 | 27892 ft | 458 kts | 333° |
| 2026-05-04 08:12 | 8.59887 | 124.88985 | 27894 ft | 458 kts | 333° |
| 2026-05-04 08:12 | 8.62721 | 124.87503 | 27892 ft | 458 kts | 333° |
| 2026-05-04 08:12 | 8.65546 | 124.86026 | 27885 ft | 458 kts | 333° |
| 2026-05-04 08:13 | 8.68349 | 124.84560 | 27886 ft | 458 kts | 333° |
| 2026-05-04 08:13 | 8.71177 | 124.83081 | 27884 ft | 458 kts | 333° |
| 2026-05-04 08:13 | 8.74006 | 124.81600 | 27884 ft | 458 kts | 333° |
| 2026-05-04 08:13 | 8.76835 | 124.80120 | 27879 ft | 458 kts | 333° |
| 2026-05-04 08:14 | 8.79662 | 124.78641 | 27768 ft | 458 kts | 333° |
| 2026-05-04 08:14 | 8.82488 | 124.77161 | 27538 ft | 456 kts | 333° |
| 2026-05-04 08:14 | 8.85306 | 124.75686 | 27285 ft | 454 kts | 334° |
| 2026-05-04 08:16 | 9.04717 | 124.65520 | 25625 ft | 444 kts | 334° |
| 2026-05-04 08:16 | 9.07453 | 124.64085 | 25393 ft | 442 kts | 334° |
| 2026-05-04 08:16 | 9.10186 | 124.62651 | 25166 ft | 441 kts | 334° |
| 2026-05-04 08:17 | 9.12903 | 124.61226 | 24941 ft | 439 kts | 334° |
| 2026-05-04 08:17 | 9.15611 | 124.59805 | 24720 ft | 438 kts | 334° |
| 2026-05-04 08:17 | 9.18314 | 124.58386 | 24497 ft | 437 kts | 334° |
| 2026-05-04 08:17 | 9.21016 | 124.56968 | 24279 ft | 436 kts | 334° |
| 2026-05-04 08:19 | 9.38705 | 124.47672 | 20426 ft | 389 kts | 334° |
| 2026-05-04 08:19 | 9.41122 | 124.46403 | 19804 ft | 391 kts | 334° |
| 2026-05-04 08:20 | 9.43535 | 124.45135 | 19202 ft | 389 kts | 334° |
| 2026-05-04 08:20 | 9.45920 | 124.43880 | 18622 ft | 383 kts | 334° |
| 2026-05-04 08:20 | 9.48276 | 124.42640 | 18048 ft | 382 kts | 334° |
| 2026-05-04 08:20 | 9.50631 | 124.41403 | 17486 ft | 380 kts | 334° |
| 2026-05-04 08:21 | 9.52977 | 124.40169 | 16930 ft | 378 kts | 334° |
| 2026-05-04 08:21 | 9.55307 | 124.38939 | 16365 ft | 377 kts | 333° |
| 2026-05-04 08:21 | 9.57505 | 124.37516 | 15782 ft | 377 kts | 324° |
| 2026-05-04 08:21 | 9.59490 | 124.35773 | 15229 ft | 376 kts | 317° |
| 2026-05-04 08:22 | 9.61367 | 124.33963 | 14670 ft | 368 kts | 317° |
| 2026-05-04 08:22 | 9.63185 | 124.32224 | 14113 ft | 360 kts | 317° |
| 2026-05-04 08:24 | 9.75957 | 124.20045 | 12110 ft | 365 kts | 317° |
| 2026-05-04 08:24 | 9.77797 | 124.18287 | 11638 ft | 362 kts | 317° |
| 2026-05-04 08:24 | 9.79622 | 124.16545 | 11169 ft | 358 kts | 317° |
| 2026-05-04 08:24 | 9.81421 | 124.14827 | 10708 ft | 353 kts | 317° |
| 2026-05-04 08:25 | 9.83204 | 124.13127 | 10287 ft | 348 kts | 317° |
| 2026-05-04 08:25 | 9.84959 | 124.11454 | 9772 ft | 346 kts | 317° |
| 2026-05-04 08:25 | 9.86673 | 124.09817 | 9513 ft | 328 kts | 317° |
| 2026-05-04 08:25 | 9.88262 | 124.08297 | 9324 ft | 308 kts | 317° |
| 2026-05-04 08:26 | 9.89791 | 124.06833 | 8884 ft | 299 kts | 317° |
| 2026-05-04 08:27 | 9.99923 | 123.97152 | 5933 ft | 287 kts | 318° |
| 2026-05-04 08:28 | 10.01370 | 123.95766 | 5559 ft | 285 kts | 318° |
| 2026-05-04 08:28 | 10.02812 | 123.94385 | 5189 ft | 284 kts | 318° |
| 2026-05-04 08:28 | 10.04241 | 123.93017 | 4824 ft | 282 kts | 318° |
| 2026-05-04 08:28 | 10.05666 | 123.91653 | 4447 ft | 281 kts | 318° |
| 2026-05-04 08:29 | 10.07080 | 123.90301 | 4117 ft | 277 kts | 318° |
| 2026-05-04 08:29 | 10.08457 | 123.88963 | 3942 ft | 273 kts | 317° |
| 2026-05-04 08:29 | 10.09800 | 123.87602 | 3508 ft | 274 kts | 316° |
| 2026-05-04 08:31 | 10.19849 | 123.85832 | 2414 ft | 252 kts | 60° |
| 2026-05-04 08:33 | 10.26524 | 123.93739 | 1495 ft | 153 kts | 49° |
| 2026-05-04 08:33 | 10.27252 | 123.94478 | 1207 ft | 145 kts | 45° |
| 2026-05-04 08:35 | 10.30671 | 123.97852 | 33 ft | 6 kts | 39° |
| 2026-05-04 08:35 | 10.30680 | 123.97859 | 35 ft | 4 kts | 39° |
| 2026-05-04 08:35 | 10.30715 | 123.97861 | 34 ft | 7 kts | 336° |
| 2026-05-04 08:35 | 10.30772 | 123.97818 | 36 ft | 13 kts | 317° |
| 2026-05-04 08:37 | 10.31209 | 123.97975 | 38 ft | 10 kts | 10° |
| 2026-05-04 08:37 | 10.31261 | 123.97945 | 38 ft | 8 kts | 312° |
| 2026-05-04 08:37 | 10.31315 | 123.97904 | 38 ft | 11 kts | 336° |
| 2026-05-04 08:38 | 10.31387 | 123.97926 | 38 ft | 12 kts | 39° |
| 2026-05-04 08:38 | 10.31435 | 123.97969 | 37 ft | 2 kts | 44° |
| 2026-05-04 08:38 | 10.31455 | 123.97977 | 38 ft | 4 kts | 349° |
| 2026-05-04 08:40 | 10.31515 | 123.97925 | 38 ft | 0 kts | 314° |